»·PEaware :: N1XC KGCN-KHII

N1XC :: KGCN-KHII

FLIGHT INFORMATION

Flight Status: Arrived
Operator: Privately registered:
United States
More flights under this callsign
Pilot: Adam S. (8156)
Aircraft: CESSNA T210 TURBO CENTURION
(T210)
More flights by this aircraft type
Origin: KGCN Grand Canyon Natl Park
United States
Destination: KHII Lake Havasu City
United States
More flights between these airports :: More routes between these airports
Route: +PARKS4 PGS EED
File this flight plan on PilotEdge
Remarks: RNAV GPS 14
Altitude:
(Current/Filed)
12,000ft
Speed:
(Current/Filed)
160kts
Departed: 04-Sep-17 07:03 PM
Arrived: 04-Sep-17 08:04 PM
Distance/Time
Traveled:
137nm/1:01
Distance/Time
To Go:
Arrived

Flight Plot

Page will automatically refresh every two minutes.

Flight plan parsing failed; only flown route is shown


Map Options




Map Legend


Flown Route
Filed Route
Departure Airport
Arrival Airport
Navaid (VOR, NDB)
Fix

Horizontal Profiles

Position Reports

Time Latitude Longitude Heading Altitude Ground
Speed
04-Sep-17 18:42 35.959641 -112.136411 220 6603ft 0kts
04-Sep-17 18:43 35.959641 -112.136411 220 6603ft 0kts
04-Sep-17 18:44 35.959641 -112.136411 220 6603ft 0kts
04-Sep-17 18:45 35.959641 -112.136411 220 6603ft 0kts
04-Sep-17 18:46 35.959641 -112.136411 220 6603ft 0kts
04-Sep-17 18:47 35.959641 -112.136411 220 6603ft 0kts
04-Sep-17 18:48 35.959641 -112.136411 220 6603ft 0kts
04-Sep-17 18:49 35.959641 -112.136411 220 6603ft 0kts
04-Sep-17 18:50 35.959641 -112.136411 220 6603ft 0kts
04-Sep-17 18:51 35.959641 -112.136411 220 6603ft 0kts
04-Sep-17 18:52 35.959641 -112.136411 220 6603ft 0kts
04-Sep-17 18:53 35.959641 -112.136411 220 6603ft 0kts
04-Sep-17 18:54 35.959641 -112.136411 220 6603ft 0kts
04-Sep-17 18:55 35.959641 -112.136411 220 6603ft 0kts
04-Sep-17 18:56 35.959641 -112.136411 220 6604ft 0kts
04-Sep-17 18:57 35.959641 -112.136411 220 6604ft 0kts
04-Sep-17 18:58 35.959641 -112.136411 220 6604ft 0kts
04-Sep-17 18:59 35.959641 -112.136411 220 6604ft 0kts
04-Sep-17 19:00 35.959641 -112.136411 220 6604ft 0kts
04-Sep-17 19:01 35.959641 -112.136411 220 6604ft 0kts
04-Sep-17 19:02 35.959641 -112.136411 220 6604ft 0kts
04-Sep-17 19:03 35.959640 -112.136751 301 6603ft 10kts
04-Sep-17 19:04 35.961020 -112.136299 327 6603ft 0kts
04-Sep-17 19:05 35.961021 -112.136300 328 6603ft 0kts
04-Sep-17 19:06 35.961321 -112.137250 247 6603ft 16kts
04-Sep-17 19:07 35.945897 -112.157636 247 7148ft 104kts
04-Sep-17 19:08 35.939970 -112.194733 276 7920ft 114kts
04-Sep-17 19:09 35.938255 -112.233782 253 8445ft 115kts
04-Sep-17 19:10 35.925929 -112.274486 251 9352ft 133kts
04-Sep-17 19:11 35.912997 -112.319220 251 10080ft 163kts
04-Sep-17 19:12 35.898593 -112.377465 257 10173ft 179kts
04-Sep-17 19:13 35.886386 -112.436567 257 10525ft 177kts
04-Sep-17 19:14 35.874226 -112.495584 257 10853ft 177kts
04-Sep-17 19:15 35.862341 -112.553211 257 11394ft 171kts
04-Sep-17 19:16 35.863007 -112.609229 291 11893ft 169kts
04-Sep-17 19:17 35.873290 -112.665020 274 12401ft 170kts
04-Sep-17 19:18 35.855378 -112.717174 219 12890ft 174kts
04-Sep-17 19:19 35.828753 -112.770706 237 12707ft 200kts
04-Sep-17 19:20 35.796074 -112.829233 234 12201ft 212kts
04-Sep-17 19:21 35.761244 -112.887502 233 11988ft 205kts
04-Sep-17 19:22 35.720902 -112.934393 220 11990ft 197kts
04-Sep-17 19:23 35.692356 -112.987107 261 11992ft 192kts
04-Sep-17 19:24 35.679649 -113.050993 255 11987ft 193kts
04-Sep-17 19:25 35.687189 -113.114617 285 11991ft 191kts
04-Sep-17 19:26 35.693585 -113.179297 268 11991ft 192kts
04-Sep-17 19:27 35.671603 -113.237599 226 11901ft 212kts
04-Sep-17 19:28 35.628165 -113.287988 215 11783ft 210kts
04-Sep-17 19:29 35.586877 -113.333311 213 11802ft 191kts
04-Sep-17 19:30 35.546772 -113.374324 210 11803ft 185kts
04-Sep-17 19:31 35.506089 -113.412523 208 11803ft 183kts
04-Sep-17 19:32 35.464508 -113.448125 205 11803ft 182kts
04-Sep-17 19:33 35.422031 -113.481121 203 11803ft 181kts
04-Sep-17 19:34 35.378453 -113.511579 200 11803ft 179kts
04-Sep-17 19:35 35.334114 -113.539255 198 11803ft 178kts
04-Sep-17 19:36 35.287188 -113.564875 194 11811ft 189kts
04-Sep-17 19:37 35.239806 -113.587674 193 11802ft 179kts
04-Sep-17 19:38 35.193302 -113.607259 192 11802ft 175kts
04-Sep-17 19:39 35.154679 -113.642585 229 11802ft 192kts
04-Sep-17 19:40 35.127355 -113.695043 228 11799ft 191kts
04-Sep-17 19:41 35.094001 -113.743994 218 11799ft 186kts
04-Sep-17 19:42 35.067479 -113.800053 234 11799ft 194kts
04-Sep-17 19:43 35.042913 -113.858480 236 11798ft 194kts
04-Sep-17 19:44 35.016701 -113.917330 241 11828ft 206kts
04-Sep-17 19:45 34.986816 -113.983421 235 11138ft 231kts
04-Sep-17 19:46 34.956161 -114.053897 235 10541ft 243kts
04-Sep-17 19:47 34.922958 -114.127969 235 10019ft 243kts
04-Sep-17 19:48 34.894270 -114.191834 233 9227ft 194kts
04-Sep-17 19:49 34.871051 -114.242190 236 8143ft 170kts
04-Sep-17 19:50 34.848608 -114.291274 245 6908ft 162kts
04-Sep-17 19:51 34.827581 -114.338232 245 5680ft 155kts
04-Sep-17 19:52 34.808642 -114.379759 245 6522ft 134kts
04-Sep-17 19:53 34.785295 -114.431402 243 6367ft 197kts
04-Sep-17 19:54 34.758034 -114.492060 237 6232ft 206kts
04-Sep-17 19:55 34.781181 -114.535338 353 6184ft 209kts
04-Sep-17 19:56 34.838594 -114.545947 1 6023ft 209kts
04-Sep-17 19:57 34.839925 -114.504676 169 5388ft 199kts
04-Sep-17 19:58 34.785127 -114.493668 147 4734ft 188kts
04-Sep-17 19:59 34.744308 -114.464703 166 4937ft 176kts
04-Sep-17 20:00 34.696566 -114.450844 158 4858ft 180kts
04-Sep-17 20:01 34.649681 -114.418711 147 3486ft 196kts
04-Sep-17 20:02 34.613066 -114.388926 145 1608ft 138kts
04-Sep-17 20:03 34.583101 -114.366741 151 986ft 120kts
04-Sep-17 20:04 34.555084 -114.343001 111 1531ft 117kts
04-Sep-17 20:05 34.576354 -114.336153 325 1853ft 141kts
04-Sep-17 20:06 34.604360 -114.368716 276 1723ft 115kts
04-Sep-17 20:07 34.586222 -114.369721 132 1064ft 96kts
04-Sep-17 20:08 34.574264 -114.361681 182 751ft 14kts
04-Sep-17 20:09 34.569964 -114.359469 244 751ft 15kts
04-Sep-17 20:10 34.609496 -114.385996 146 1490ft 136kts
04-Sep-17 20:11 34.579198 -114.364155 150 959ft 126kts
04-Sep-17 20:12 34.589144 -114.376342 113 1181ft 107kts
04-Sep-17 20:13 34.575149 -114.361653 182 751ft 17kts
04-Sep-17 20:14 34.570643 -114.359264 150 751ft 15kts
04-Sep-17 20:15 34.570702 -114.360866 56 751ft 0kts
04-Sep-17 20:16 34.570702 -114.360866 56 751ft 0kts
04-Sep-17 20:17 34.570702 -114.360866 56 751ft 0kts
04-Sep-17 20:18 34.570702 -114.360866 56 751ft 0kts
04-Sep-17 20:19 34.570702 -114.360866 56 751ft 0kts
04-Sep-17 20:20 34.570702 -114.360866 56 751ft 0kts

Navigation Log

Ident Type
Flight plan parsing failed, navigation log unavailable